KQA605 HKMO-HKJK
Flight info
| Callsign | KQA605 |
|---|---|
| Flight time | 0h 38m |
| Altitude | 32000 |
| Route | NERAG1A UTIKU UQ315 UTEPI UTEPI1A |
| Aircraft | B788/H-SDE1E2E3FGHIJ2J3J4J5M1RWXYZ/LB1D1 |
Departure
| Time | 2026-05-04 17:40 |
|---|---|
| Airport | Moi International Airport (HKMO) |
Arrival
| Time | 2026-05-04 18:18 |
|---|---|
| Airport | Jomo Kenyatta International Airport (HKJK) |
| Time | Latitude | Longitude | Altitude | Speed | Heading |
|---|---|---|---|---|---|
| 2026-05-04 17:22 | -4.03265 | 39.60171 | 218 ft | 0 kts | 119° |
| 2026-05-04 17:30 | -4.03258 | 39.60157 | 221 ft | 4 kts | 112° |
| 2026-05-04 17:31 | -4.03243 | 39.60107 | 214 ft | 4 kts | 107° |
| 2026-05-04 17:31 | -4.03203 | 39.60108 | 213 ft | 4 kts | 221° |
| 2026-05-04 17:32 | -4.03157 | 39.60134 | 221 ft | 4 kts | 211° |
| 2026-05-04 17:33 | -4.03131 | 39.60150 | 222 ft | 0 kts | 209° |
| 2026-05-04 17:34 | -4.03145 | 39.60142 | 212 ft | 8 kts | 209° |
| 2026-05-04 17:34 | -4.03214 | 39.60104 | 219 ft | 14 kts | 208° |
| 2026-05-04 17:35 | -4.03326 | 39.59762 | 218 ft | 15 kts | 270° |
| 2026-05-04 17:35 | -4.03213 | 39.59781 | 220 ft | 18 kts | 31° |
| 2026-05-04 17:35 | -4.03097 | 39.59845 | 219 ft | 20 kts | 29° |
| 2026-05-04 17:36 | -4.02970 | 39.59915 | 219 ft | 21 kts | 29° |
| 2026-05-04 17:36 | -4.02851 | 39.59980 | 221 ft | 19 kts | 30° |
| 2026-05-04 17:36 | -4.02732 | 39.60050 | 219 ft | 21 kts | 30° |
| 2026-05-04 17:36 | -4.02599 | 39.60125 | 219 ft | 23 kts | 29° |
| 2026-05-04 17:37 | -4.02455 | 39.60207 | 215 ft | 24 kts | 30° |
| 2026-05-04 17:37 | -4.02315 | 39.60281 | 213 ft | 23 kts | 27° |
| 2026-05-04 17:37 | -4.02171 | 39.60362 | 216 ft | 24 kts | 31° |
| 2026-05-04 17:37 | -4.02023 | 39.60445 | 219 ft | 25 kts | 29° |
| 2026-05-04 17:38 | -4.01873 | 39.60528 | 213 ft | 25 kts | 28° |
| 2026-05-04 17:38 | -4.01724 | 39.60615 | 216 ft | 25 kts | 29° |
| 2026-05-04 17:38 | -4.01579 | 39.60695 | 217 ft | 23 kts | 30° |
| 2026-05-04 17:38 | -4.01461 | 39.60734 | 219 ft | 17 kts | 356° |
| 2026-05-04 17:39 | -4.01368 | 39.60615 | 221 ft | 10 kts | 216° |
| 2026-05-04 17:39 | -4.01491 | 39.60547 | 221 ft | 51 kts | 208° |
| 2026-05-04 17:39 | -4.02066 | 39.60225 | 217 ft | 136 kts | 208° |
| 2026-05-04 17:40 | -4.03101 | 39.59636 | 388 ft | 203 kts | 213° |
| 2026-05-04 17:40 | -4.04468 | 39.58921 | 1284 ft | 236 kts | 208° |
| 2026-05-04 17:40 | -4.05689 | 39.57785 | 2763 ft | 245 kts | 233° |
| 2026-05-04 17:40 | -4.06277 | 39.56136 | 4008 ft | 265 kts | 263° |
| 2026-05-04 17:41 | -4.05973 | 39.54279 | 5186 ft | 279 kts | 285° |
| 2026-05-04 17:41 | -4.05233 | 39.52470 | 6390 ft | 286 kts | 304° |
| 2026-05-04 17:41 | -4.03683 | 39.51239 | 7542 ft | 291 kts | 337° |
| 2026-05-04 17:41 | -4.01723 | 39.50672 | 8687 ft | 296 kts | 348° |
| 2026-05-04 17:42 | -3.99740 | 39.50101 | 9787 ft | 301 kts | 330° |
| 2026-05-04 17:42 | -3.98153 | 39.48692 | 10598 ft | 318 kts | 311° |
| 2026-05-04 17:42 | -3.96723 | 39.46881 | 11044 ft | 345 kts | 308° |
| 2026-05-04 17:42 | -3.95161 | 39.44925 | 11413 ft | 373 kts | 311° |
| 2026-05-04 17:43 | -3.93368 | 39.42991 | 12251 ft | 381 kts | 315° |
| 2026-05-04 17:43 | -3.91522 | 39.41068 | 13280 ft | 386 kts | 314° |
| 2026-05-04 17:43 | -3.89708 | 39.39063 | 14240 ft | 391 kts | 312° |
| 2026-05-04 17:43 | -3.87889 | 39.37010 | 15128 ft | 397 kts | 313° |
| 2026-05-04 17:44 | -3.86020 | 39.34949 | 16015 ft | 402 kts | 313° |
| 2026-05-04 17:44 | -3.84114 | 39.32877 | 16859 ft | 408 kts | 313° |
| 2026-05-04 17:44 | -3.82188 | 39.30765 | 17681 ft | 414 kts | 313° |
| 2026-05-04 17:44 | -3.80243 | 39.28614 | 18457 ft | 419 kts | 313° |
| 2026-05-04 17:45 | -3.78272 | 39.26442 | 19138 ft | 424 kts | 313° |
| 2026-05-04 17:45 | -3.76274 | 39.24249 | 19823 ft | 428 kts | 313° |
| 2026-05-04 17:45 | -3.74257 | 39.22035 | 20504 ft | 433 kts | 313° |
| 2026-05-04 17:45 | -3.72246 | 39.19820 | 21159 ft | 438 kts | 313° |
| 2026-05-04 17:46 | -3.70187 | 39.17554 | 21816 ft | 442 kts | 313° |
| 2026-05-04 17:46 | -3.68103 | 39.15264 | 22442 ft | 447 kts | 313° |
| 2026-05-04 17:46 | -3.66002 | 39.12955 | 23049 ft | 452 kts | 313° |
| 2026-05-04 17:46 | -3.63877 | 39.10619 | 23642 ft | 456 kts | 313° |
| 2026-05-04 17:47 | -3.61729 | 39.08258 | 24122 ft | 460 kts | 313° |
| 2026-05-04 17:47 | -3.59568 | 39.05883 | 24633 ft | 463 kts | 313° |
| 2026-05-04 17:47 | -3.57392 | 39.03491 | 25125 ft | 466 kts | 313° |
| 2026-05-04 17:47 | -3.55205 | 39.01088 | 25772 ft | 465 kts | 313° |
| 2026-05-04 17:48 | -3.53030 | 38.98698 | 26442 ft | 464 kts | 313° |
| 2026-05-04 17:48 | -3.50859 | 38.96311 | 27105 ft | 463 kts | 313° |
| 2026-05-04 17:48 | -3.48693 | 38.93932 | 27804 ft | 462 kts | 313° |
| 2026-05-04 17:48 | -3.46534 | 38.91560 | 28480 ft | 461 kts | 313° |
| 2026-05-04 17:49 | -3.44377 | 38.89191 | 29156 ft | 460 kts | 313° |
| 2026-05-04 17:49 | -3.42225 | 38.86826 | 29827 ft | 459 kts | 313° |
| 2026-05-04 17:49 | -3.40077 | 38.84467 | 30421 ft | 458 kts | 313° |
| 2026-05-04 17:49 | -3.37935 | 38.82114 | 30979 ft | 457 kts | 313° |
| 2026-05-04 17:50 | -3.35796 | 38.79766 | 31538 ft | 456 kts | 313° |
| 2026-05-04 17:50 | -3.33658 | 38.77418 | 31974 ft | 458 kts | 313° |
| 2026-05-04 17:50 | -3.29330 | 38.72666 | 31997 ft | 458 kts | 313° |
| 2026-05-04 17:51 | -3.25084 | 38.68004 | 32003 ft | 451 kts | 313° |
| 2026-05-04 17:51 | -3.20856 | 38.63364 | 32013 ft | 451 kts | 313° |
| 2026-05-04 17:52 | -3.16653 | 38.58749 | 32011 ft | 451 kts | 313° |
| 2026-05-04 17:52 | -3.12424 | 38.54109 | 32021 ft | 451 kts | 313° |
| 2026-05-04 17:53 | -3.08191 | 38.49463 | 32025 ft | 452 kts | 313° |
| 2026-05-04 17:53 | -3.03947 | 38.44807 | 32028 ft | 453 kts | 313° |
| 2026-05-04 17:54 | -2.99698 | 38.40146 | 32025 ft | 453 kts | 313° |
| 2026-05-04 17:54 | -2.95453 | 38.35490 | 32037 ft | 453 kts | 313° |
| 2026-05-04 17:55 | -2.91204 | 38.30830 | 32039 ft | 453 kts | 313° |
| 2026-05-04 17:55 | -2.86962 | 38.26177 | 32044 ft | 452 kts | 313° |
| 2026-05-04 17:56 | -2.82715 | 38.21521 | 32052 ft | 453 kts | 313° |
| 2026-05-04 17:56 | -2.78473 | 38.16870 | 32055 ft | 452 kts | 313° |
| 2026-05-04 17:57 | -2.74235 | 38.12224 | 32057 ft | 452 kts | 313° |
| 2026-05-04 17:57 | -2.70001 | 38.07583 | 32073 ft | 451 kts | 313° |
| 2026-05-04 17:58 | -2.65772 | 38.02948 | 32071 ft | 451 kts | 313° |
| 2026-05-04 17:58 | -2.61572 | 37.98346 | 32086 ft | 451 kts | 313° |
| 2026-05-04 17:59 | -2.57340 | 37.93708 | 32088 ft | 451 kts | 313° |
| 2026-05-04 18:00 | -2.50993 | 37.86754 | 32100 ft | 451 kts | 313° |
| 2026-05-04 18:00 | -2.46766 | 37.82124 | 32099 ft | 450 kts | 313° |
| 2026-05-04 18:01 | -2.42549 | 37.77505 | 32100 ft | 449 kts | 313° |
| 2026-05-04 18:01 | -2.38334 | 37.72889 | 32098 ft | 450 kts | 313° |
| 2026-05-04 18:02 | -2.32007 | 37.65960 | 32110 ft | 450 kts | 313° |
| 2026-05-04 18:02 | -2.27793 | 37.61345 | 32113 ft | 449 kts | 313° |
| 2026-05-04 18:03 | -2.23574 | 37.56727 | 32125 ft | 450 kts | 313° |
| 2026-05-04 18:03 | -2.19362 | 37.52115 | 32139 ft | 449 kts | 313° |
| 2026-05-04 18:04 | -2.15860 | 37.48281 | 32099 ft | 447 kts | 313° |
| 2026-05-04 18:04 | -2.11633 | 37.43655 | 30937 ft | 453 kts | 313° |
| 2026-05-04 18:05 | -2.09369 | 37.41471 | 30407 ft | 451 kts | 322° |
| 2026-05-04 18:05 | -2.06913 | 37.39502 | 29747 ft | 454 kts | 322° |
| 2026-05-04 18:05 | -2.04442 | 37.37537 | 29118 ft | 455 kts | 322° |
| 2026-05-04 18:05 | -2.01966 | 37.35556 | 28449 ft | 456 kts | 322° |
| 2026-05-04 18:06 | -1.97002 | 37.31566 | 27124 ft | 459 kts | 322° |
| 2026-05-04 18:06 | -1.94509 | 37.29572 | 26458 ft | 460 kts | 322° |
| 2026-05-04 18:06 | -1.92008 | 37.27571 | 25788 ft | 461 kts | 322° |
| 2026-05-04 18:07 | -1.89504 | 37.25563 | 25103 ft | 463 kts | 322° |
| 2026-05-04 18:07 | -1.86988 | 37.23545 | 24417 ft | 464 kts | 322° |
| 2026-05-04 18:07 | -1.84464 | 37.21523 | 23733 ft | 465 kts | 322° |
| 2026-05-04 18:07 | -1.81935 | 37.19498 | 22918 ft | 466 kts | 322° |
| 2026-05-04 18:08 | -1.79404 | 37.17470 | 22113 ft | 467 kts | 322° |
| 2026-05-04 18:08 | -1.76889 | 37.15454 | 21633 ft | 459 kts | 322° |
| 2026-05-04 18:08 | -1.74407 | 37.13465 | 21023 ft | 455 kts | 322° |
| 2026-05-04 18:08 | -1.71946 | 37.11495 | 20445 ft | 451 kts | 322° |
| 2026-05-04 18:09 | -1.67128 | 37.07635 | 19299 ft | 443 kts | 322° |
| 2026-05-04 18:09 | -1.62369 | 37.03823 | 18143 ft | 434 kts | 322° |
| 2026-05-04 18:10 | -1.60028 | 37.01947 | 17532 ft | 429 kts | 322° |
| 2026-05-04 18:10 | -1.57714 | 37.00094 | 16922 ft | 424 kts | 322° |
| 2026-05-04 18:10 | -1.55424 | 36.98260 | 16319 ft | 420 kts | 322° |
| 2026-05-04 18:10 | -1.53155 | 36.96443 | 15720 ft | 416 kts | 322° |
| 2026-05-04 18:11 | -1.50912 | 36.94646 | 15124 ft | 411 kts | 322° |
| 2026-05-04 18:11 | -1.48689 | 36.92866 | 14535 ft | 407 kts | 322° |
| 2026-05-04 18:11 | -1.46490 | 36.91105 | 13957 ft | 403 kts | 322° |
| 2026-05-04 18:11 | -1.44310 | 36.89359 | 13310 ft | 399 kts | 322° |
| 2026-05-04 18:12 | -1.42152 | 36.87631 | 12673 ft | 395 kts | 322° |
| 2026-05-04 18:12 | -1.40015 | 36.85926 | 12090 ft | 391 kts | 323° |
| 2026-05-04 18:12 | -1.37655 | 36.84676 | 11707 ft | 377 kts | 344° |
| 2026-05-04 18:12 | -1.35223 | 36.84162 | 11288 ft | 340 kts | 354° |
| 2026-05-04 18:13 | -1.32971 | 36.84291 | 10383 ft | 319 kts | 18° |
| 2026-05-04 18:13 | -1.31024 | 36.85353 | 8516 ft | 330 kts | 47° |
| 2026-05-04 18:13 | -1.30351 | 36.89219 | 7517 ft | 272 kts | 119° |
| 2026-05-04 18:14 | -1.31585 | 36.90502 | 6972 ft | 256 kts | 149° |
| 2026-05-04 18:14 | -1.33058 | 36.91322 | 6852 ft | 226 kts | 147° |
| 2026-05-04 18:14 | -1.34269 | 36.91986 | 7106 ft | 173 kts | 161° |
| 2026-05-04 18:15 | -1.36080 | 36.91356 | 6887 ft | 144 kts | 233° |
| 2026-05-04 18:15 | -1.37179 | 36.89612 | 7065 ft | 158 kts | 238° |
| 2026-05-04 18:15 | -1.37630 | 36.88593 | 7178 ft | 162 kts | 252° |
| 2026-05-04 18:16 | -1.37244 | 36.87510 | 7011 ft | 170 kts | 315° |
| 2026-05-04 18:16 | -1.36137 | 36.87098 | 6796 ft | 183 kts | 350° |
| 2026-05-04 18:16 | -1.35000 | 36.87260 | 6558 ft | 160 kts | 28° |
| 2026-05-04 18:17 | -1.34123 | 36.89318 | 5925 ft | 160 kts | 74° |
| 2026-05-04 18:17 | -1.33702 | 36.90256 | 5794 ft | 144 kts | 59° |
| 2026-05-04 18:17 | -1.32591 | 36.91856 | 5345 ft | 131 kts | 55° |
| 2026-05-04 18:18 | -1.32126 | 36.92490 | 5321 ft | 74 kts | 50° |
| 2026-05-04 18:18 | -1.31971 | 36.92718 | 5317 ft | 32 kts | 66° |
| 2026-05-04 18:18 | -1.32034 | 36.92858 | 5316 ft | 21 kts | 146° |
| 2026-05-04 18:18 | -1.32142 | 36.92933 | 5318 ft | 17 kts | 150° |
| 2026-05-04 18:19 | -1.32287 | 36.92842 | 5325 ft | 21 kts | 237° |
| 2026-05-04 18:19 | -1.32367 | 36.92729 | 5336 ft | 19 kts | 235° |
| 2026-05-04 18:19 | -1.32443 | 36.92624 | 5335 ft | 18 kts | 233° |
| 2026-05-04 18:20 | -1.32516 | 36.92527 | 5336 ft | 14 kts | 235° |
| 2026-05-04 18:20 | -1.32571 | 36.92448 | 5335 ft | 13 kts | 234° |
| 2026-05-04 18:20 | -1.32619 | 36.92382 | 5336 ft | 12 kts | 233° |
| 2026-05-04 18:20 | -1.32679 | 36.92354 | 5331 ft | 9 kts | 162° |
| 2026-05-04 18:21 | -1.32730 | 36.92382 | 5333 ft | 7 kts | 145° |
| 2026-05-04 18:21 | -1.32769 | 36.92383 | 5334 ft | 10 kts | 202° |
| 2026-05-04 18:21 | -1.32830 | 36.92320 | 5332 ft | 13 kts | 230° |
| 2026-05-04 18:21 | -1.32895 | 36.92264 | 5332 ft | 11 kts | 211° |
| 2026-05-04 18:22 | -1.32963 | 36.92230 | 5335 ft | 11 kts | 200° |
| 2026-05-04 18:22 | -1.33069 | 36.92218 | 5335 ft | 16 kts | 175° |
| 2026-05-04 18:22 | -1.33170 | 36.92243 | 5332 ft | 14 kts | 152° |
| 2026-05-04 18:22 | -1.33259 | 36.92277 | 5334 ft | 13 kts | 174° |
| 2026-05-04 18:23 | -1.33341 | 36.92284 | 5330 ft | 11 kts | 165° |
| 2026-05-04 18:23 | -1.33400 | 36.92317 | 5335 ft | 8 kts | 144° |
| 2026-05-04 18:23 | -1.33430 | 36.92348 | 5336 ft | 3 kts | 102° |
| 2026-05-04 18:23 | -1.33429 | 36.92361 | 5336 ft | 1 kts | 63° |
| 2026-05-04 18:24 | -1.33402 | 36.92379 | 5336 ft | 4 kts | 23° |
| 2026-05-04 18:24 | -1.33377 | 36.92389 | 5333 ft | 3 kts | 19° |
| 2026-05-04 18:24 | -1.33367 | 36.92393 | 5333 ft | 0 kts | 19° |
| 2026-05-04 18:24 | -1.33363 | 36.92394 | 5333 ft | 0 kts | 19° |